Blackwood Terrace, New Jersey
Current Conditions -  °F | °C
As of 11:54 AM on Friday 24 Oct 2014 (Local Time) from KPHL Reporting Station
Scattered Clouds Scattered Clouds  
Wind Chill: 65°   Ceiling: Unl
Heat Index: 65°   Visibility: 10mi
Dew Point: 44°   Wind: 14mph
Humidity: 47%   Direction: 330°NNW
Pressure: 29.87"   Gusts: NA
Location:  39.8266°N, 75.1276°W
Report Text: KPHL 241554Z 33012KT 10SM FEW045 FEW070 SCT250 18/07 A2987 RMK AO2 SLP114 T01830067
Loading
Personal Weather Stations






























Interactive Weather Map
Tropical Storm Tracking
New forecast layout! Learn more

10-Day Weather Forecast

Advertisements
Track Severe Weather on mobile